Terminal Aerodrome Forecast
Issued by NWS

Home | Current Version | Previous Version | Graphics & Text | Print | Product List | Glossary Off
Versions: 1 2 3 4 5 6 7 8 9 10 11 12 13 14 15 16 17 18 19 20 21

000
FTUS43 KDDC 222343
TAFHYS
TAF
KHYS 222343Z 2300/2324 13015KT P6SM OVC030
     FM230600 14012KT P6SM -DZ OVC008
     FM230900 15012G20KT 4SM -DZ BR OVC003
     FM231200 16012KT 3/4SM -DZ BR OVC003
     FM231500 17018G26KT 4SM BR OVC008
     FM231800 18024G35KT P6SM BKN045
      AMD NOT SKED=

USA.gov is the U.S. government's official web portal to all federal, state and local government web resources and services.